Time;durP1;ratioP1;P1;durP2;ratioP2;P2;SDS_P1;SDS_P2;PMS_P1;PMS_P2;Temp;Humidity;BMP_temperature;BMP_pressure;BME280_temperature;BME280_humidity;BME280_pressure;Samples;Min_cycle;Max_cycle;Signal;HPM_P1;HPM_P2
2023/07/08 00:01:17;;;;;;;10.57;4.60;;;;;;;21.17;50.88;98606.56;4394748;32;20163;-80
2023/07/08 00:03:44;;;;;;;13.00;4.68;;;;;;;20.35;53.53;98608.38;4394286;32;20165;-81
2023/07/08 00:06:26;;;;;;;13.05;4.90;;;;;;;20.97;52.05;98607.25;4394061;32;20094;-81
2023/07/08 00:08:53;;;;;;;10.32;4.75;;;;;;;21.22;51.32;98601.78;4394873;32;20148;-81
2023/07/08 00:11:21;;;;;;;13.10;5.65;;;;;;;20.88;52.59;98608.78;4394487;32;20353;-80
2023/07/08 00:13:48;;;;;;;13.00;4.85;;;;;;;21.02;52.17;98602.47;4394463;32;20087;-80
2023/07/08 00:16:16;;;;;;;11.90;5.28;;;;;;;20.80;52.51;98606.72;4394647;32;20113;-80
2023/07/08 00:18:44;;;;;;;13.32;4.78;;;;;;;20.53;52.90;98589.63;4394728;32;20073;-81
2023/07/08 00:21:14;;;;;;;12.52;4.55;;;;;;;21.63;49.30;98616.13;4394182;32;20102;-81
2023/07/08 00:23:50;;;;;;;10.20;4.32;;;;;;;21.29;49.37;98613.53;4394629;32;20102;-81
2023/07/08 00:26:24;;;;;;;11.18;4.60;;;;;;;20.50;51.55;98609.88;4395009;32;20185;-81
2023/07/08 00:28:51;;;;;;;13.10;4.62;;;;;;;20.91;50.93;98608.53;4381676;32;20078;-80
2023/07/08 00:31:23;;;;;;;13.60;4.50;;;;;;;19.61;54.85;98610.22;4395172;32;20449;-80
2023/07/08 00:33:55;;;;;;;12.18;4.75;;;;;;;20.99;51.60;98615.84;4394133;32;20144;-80
2023/07/08 00:36:25;;;;;;;13.20;5.15;;;;;;;21.05;51.03;98618.84;4394421;32;20144;-80
2023/07/08 00:38:52;;;;;;;10.05;4.47;;;;;;;20.56;51.85;98616.44;4394300;32;20055;-81
2023/07/08 00:41:39;;;;;;;10.55;4.68;;;;;;;20.04;53.84;98616.78;4393843;32;20102;-81
2023/07/08 00:44:12;;;;;;;11.32;4.30;;;;;;;19.65;55.94;98613.44;4394392;32;20154;-81
2023/07/08 00:47:03;;;;;;;13.70;4.75;;;;;;;20.46;52.77;98618.09;4394248;32;20087;-81
2023/07/08 00:49:50;;;;;;;10.20;4.30;;;;;;;20.38;53.29;98608.13;4393799;32;20109;-81
2023/07/08 00:52:24;;;;;;;13.73;4.40;;;;;;;19.80;54.88;98619.38;4380687;32;20246;-81
2023/07/08 00:55:06;;;;;;;12.20;4.90;;;;;;;19.04;56.23;98618.53;4393943;32;20361;-81
2023/07/08 00:57:35;;;;;;;12.35;5.18;;;;;;;20.04;54.01;98612.38;4394323;32;20096;-81
2023/07/08 01:00:16;;;;;;;10.85;4.53;;;;;;;19.74;54.78;98620.66;4380450;32;20148;-81
2023/07/08 01:02:50;;;;;;;12.40;4.68;;;;;;;20.50;52.10;98614.28;4393593;32;20107;-81
2023/07/08 01:05:20;;;;;;;10.32;4.40;;;;;;;21.12;50.54;98619.19;4380509;32;20106;-80
2023/07/08 01:07:51;;;;;;;11.15;4.45;;;;;;;20.60;52.24;98614.44;4380517;32;20105;-81
2023/07/08 01:10:53;;;;;;;10.95;4.50;;;;;;;20.97;51.27;98623.84;4379951;32;20161;-81
2023/07/08 01:13:21;;;;;;;10.25;4.40;;;;;;;20.57;52.48;98617.28;4393990;32;20087;-81
2023/07/08 01:15:49;;;;;;;9.85;4.30;;;;;;;20.75;52.26;98616.75;4380684;32;20098;-81
2023/07/08 01:18:20;;;;;;;11.25;3.90;;;;;;;20.77;51.69;98625.34;4382481;32;20090;-81
2023/07/08 01:20:48;;;;;;;14.07;5.00;;;;;;;20.80;51.83;98617.22;4382400;32;20157;-81
2023/07/08 01:23:15;;;;;;;10.50;4.65;;;;;;;20.91;50.93;98621.66;4395758;32;20114;-81
2023/07/08 01:25:43;;;;;;;10.95;4.00;;;;;;;21.57;49.59;98616.59;4395994;32;20094;-81
2023/07/08 01:28:10;;;;;;;9.88;4.35;;;;;;;20.98;50.71;98609.75;4395962;32;20155;-81
2023/07/08 01:30:37;;;;;;;7.82;3.62;;;;;;;21.25;50.37;98619.06;4395531;32;20090;-81
2023/07/08 01:33:11;;;;;;;8.70;3.85;;;;;;;20.96;50.75;98611.66;4382461;32;20257;-80
2023/07/08 01:35:38;;;;;;;11.27;4.78;;;;;;;20.57;51.96;98612.03;4396070;32;20098;-81
2023/07/08 01:38:05;;;;;;;11.57;4.70;;;;;;;20.44;52.47;98606.87;4395625;32;20108;-80
2023/07/08 01:40:35;;;;;;;11.73;5.12;;;;;;;20.88;51.36;98614.03;4382171;32;20083;-80
2023/07/08 01:43:03;;;;;;;11.00;4.25;;;;;;;21.16;51.19;98614.53;4396118;32;20102;-80
2023/07/08 01:45:37;;;;;;;12.13;5.22;;;;;;;20.98;51.98;98611.56;4395690;32;20143;-81
2023/07/08 01:48:06;;;;;;;11.40;4.78;;;;;;;20.87;51.91;98606.28;4395918;32;20570;-81
2023/07/08 01:50:35;;;;;;;11.18;5.30;;;;;;;20.54;53.13;98617.53;4382169;32;20418;-81
2023/07/08 01:53:09;;;;;;;11.25;5.55;;;;;;;20.25;53.93;98607.38;4382558;32;20445;-81
2023/07/08 01:55:36;;;;;;;19.17;5.15;;;;;;;19.95;54.56;98615.66;4395854;32;20093;-81
2023/07/08 01:58:03;;;;;;;12.45;4.45;;;;;;;20.25;54.13;98606.53;4395398;32;20121;-81
2023/07/08 02:00:30;;;;;;;9.93;4.35;;;;;;;20.99;51.75;98606.19;4395471;32;20485;-81
2023/07/08 02:02:56;;;;;;;11.90;4.40;;;;;;;21.34;50.44;98603.47;4395706;32;20161;-81
2023/07/08 02:05:24;;;;;;;11.05;4.75;;;;;;;21.00;51.11;98596.53;4395464;32;20094;-81
2023/07/08 02:07:51;;;;;;;12.40;4.68;;;;;;;21.07;51.02;98593.31;4395738;32;20108;-81
2023/07/08 02:10:18;;;;;;;9.95;4.28;;;;;;;21.05;51.36;98597.84;4395076;32;20158;-81
2023/07/08 02:12:44;;;;;;;9.90;4.45;;;;;;;21.07;51.61;98589.88;4395239;32;20146;-81
2023/07/08 02:15:11;;;;;;;11.35;4.60;;;;;;;20.81;52.28;98597.06;4395490;32;20754;-81
2023/07/08 02:17:38;;;;;;;8.95;4.15;;;;;;;20.80;52.46;98604.13;4382050;32;20094;-80
2023/07/08 02:20:06;;;;;;;10.55;4.65;;;;;;;20.83;52.57;98594.34;4395094;32;20109;-81
2023/07/08 02:22:33;;;;;;;10.13;4.03;;;;;;;20.60;53.20;98594.28;4395683;32;20106;-81
2023/07/08 02:24:59;;;;;;;10.43;4.10;;;;;;;20.72;52.88;98595.16;4395674;32;20116;-81
2023/07/08 02:27:26;;;;;;;10.43;5.12;;;;;;;20.62;52.65;98595.00;4394751;32;20101;-81
2023/07/08 02:29:53;;;;;;;9.05;4.15;;;;;;;20.19;54.18;98592.09;4395485;32;20082;-81
2023/07/08 02:32:20;;;;;;;9.73;4.68;;;;;;;20.38;53.92;98595.03;4395559;32;20428;-81
2023/07/08 02:34:47;;;;;;;10.23;4.70;;;;;;;20.60;53.15;98596.91;4381585;32;20165;-80
2023/07/08 02:37:14;;;;;;;9.82;4.00;;;;;;;21.03;52.18;98594.50;4395721;32;20429;-81
2023/07/08 02:39:41;;;;;;;9.40;4.00;;;;;;;20.90;52.65;98593.75;4395463;32;20086;-81
2023/07/08 02:42:08;;;;;;;13.80;4.35;;;;;;;20.48;53.91;98601.28;4395804;32;20106;-81
2023/07/08 02:44:35;;;;;;;10.00;4.20;;;;;;;20.81;52.92;98604.94;4395621;32;20129;-80
2023/07/08 02:47:02;;;;;;;9.25;4.37;;;;;;;20.24;53.93;98605.69;4395505;32;20137;-81
2023/07/08 02:49:30;;;;;;;9.40;4.53;;;;;;;20.23;54.63;98601.41;4395871;32;20126;-81
2023/07/08 02:51:56;;;;;;;9.38;4.10;;;;;;;20.36;54.96;98598.72;4396273;32;20527;-81
2023/07/08 02:54:23;;;;;;;9.18;3.97;;;;;;;20.05;56.30;98598.34;4395506;32;20128;-81
2023/07/08 02:56:50;;;;;;;9.15;4.25;;;;;;;20.25;55.61;98603.91;4395624;32;20160;-81
2023/07/08 02:59:17;;;;;;;9.00;3.97;;;;;;;20.40;55.03;98611.47;4395418;32;20095;-81
2023/07/08 03:01:46;;;;;;;15.60;4.80;;;;;;;20.69;54.13;98614.56;4395202;32;20102;-80
2023/07/08 03:04:14;;;;;;;10.23;4.18;;;;;;;20.04;56.66;98614.16;4395494;32;20113;-81
2023/07/08 03:06:44;;;;;;;11.18;4.78;;;;;;;20.28;56.68;98615.00;4395612;32;20474;-80
2023/07/08 03:09:12;;;;;;;10.40;4.65;;;;;;;20.55;55.75;98616.56;4395309;32;20159;-81
2023/07/08 03:11:39;;;;;;;10.43;4.50;;;;;;;20.80;54.98;98614.59;4395448;32;20098;-81
2023/07/08 03:14:06;;;;;;;12.80;4.37;;;;;;;20.88;54.50;98610.56;4395765;32;20175;-81
2023/07/08 03:16:33;;;;;;;10.10;4.32;;;;;;;21.27;52.71;98618.06;4395210;32;20487;-80
2023/07/08 03:19:01;;;;;;;10.27;4.05;;;;;;;21.05;53.35;98618.84;4381952;32;20059;-81
2023/07/08 03:21:28;;;;;;;10.90;4.40;;;;;;;19.93;55.94;98623.63;4395529;32;20102;-81
2023/07/08 03:23:55;;;;;;;9.85;4.12;;;;;;;19.90;56.34;98618.62;4395339;32;20160;-81
2023/07/08 03:26:24;;;;;;;10.25;4.28;;;;;;;20.76;54.22;98620.22;4396039;32;20104;-81
2023/07/08 03:28:51;;;;;;;11.40;4.32;;;;;;;20.26;56.41;98627.38;4395689;32;20130;-81
2023/07/08 03:31:18;;;;;;;10.90;4.37;;;;;;;20.69;55.28;98622.44;4396030;32;20102;-81
2023/07/08 03:33:45;;;;;;;8.57;3.95;;;;;;;20.71;55.57;98623.16;4396436;32;20109;-81
2023/07/08 03:36:23;;;;;;;10.77;4.45;;;;;;;20.88;54.45;98628.94;4395694;32;20102;-81
2023/07/08 03:38:56;;;;;;;11.27;4.50;;;;;;;20.49;56.22;98633.56;4382496;32;20083;-81
2023/07/08 03:41:24;;;;;;;9.73;4.18;;;;;;;21.13;54.97;98633.12;4396381;32;20114;-81
2023/07/08 03:43:51;;;;;;;9.10;4.07;;;;;;;21.48;53.07;98635.69;4396184;32;20105;-81
2023/07/08 03:46:20;;;;;;;9.93;4.10;;;;;;;21.33;53.66;98637.72;4396704;32;20086;-81
2023/07/08 03:48:47;;;;;;;10.52;3.95;;;;;;;21.04;54.85;98639.91;4396622;32;20090;-81
2023/07/08 03:51:21;;;;;;;10.40;4.00;;;;;;;21.07;54.59;98645.78;4395991;32;20110;-81
2023/07/08 03:53:48;;;;;;;9.25;4.20;;;;;;;21.74;53.18;98641.53;4396637;32;20082;-81
2023/07/08 03:56:15;;;;;;;10.90;3.83;;;;;;;22.13;52.14;98638.41;4396579;32;20063;-81
2023/07/08 03:58:42;;;;;;;10.38;3.65;;;;;;;22.93;50.18;98630.06;4396248;32;20087;-81
2023/07/08 04:01:16;;;;;;;10.43;3.70;;;;;;;23.37;49.35;98635.97;4396507;32;20154;-81
2023/07/08 04:03:44;;;;;;;8.00;3.60;;;;;;;23.94;47.65;98639.81;4396376;32;20090;-81
2023/07/08 04:06:11;;;;;;;10.32;3.67;;;;;;;24.60;44.82;98640.03;4395888;32;20097;-81
2023/07/08 04:08:38;;;;;;;8.15;3.67;;;;;;;24.64;44.74;98645.84;4396287;32;20090;-81
2023/07/08 04:11:06;;;;;;;9.27;3.60;;;;;;;23.74;46.31;98646.81;4396179;32;20128;-81
2023/07/08 04:13:32;;;;;;;8.27;3.60;;;;;;;25.15;43.72;98644.72;4397202;32;20137;-81
2023/07/08 04:16:02;;;;;;;10.82;4.00;;;;;;;25.92;42.37;98647.06;4397190;32;20074;-81
2023/07/08 04:18:29;;;;;;;8.85;3.50;;;;;;;26.77;40.95;98643.13;4397354;32;20055;-81
2023/07/08 04:20:58;;;;;;;7.60;3.42;;;;;;;27.44;38.97;98648.72;4397904;32;20059;-81
2023/07/08 04:23:28;;;;;;;8.57;3.60;;;;;;;28.39;37.41;98652.91;4398415;32;20128;-81
2023/07/08 04:25:56;;;;;;;9.98;3.55;;;;;;;28.55;35.94;98649.44;4398326;32;20110;-81
2023/07/08 04:28:23;;;;;;;9.07;3.70;;;;;;;28.43;36.62;98657.72;4398655;32;20146;-81
2023/07/08 04:30:50;;;;;;;7.57;3.28;;;;;;;29.15;35.25;98651.78;4399063;32;20141;-81
2023/07/08 04:33:18;;;;;;;8.25;3.67;;;;;;;29.44;35.01;98652.03;4399230;32;20158;-81
2023/07/08 04:35:45;;;;;;;12.20;4.62;;;;;;;30.11;34.18;98655.12;4399029;32;20424;-81
2023/07/08 04:38:23;;;;;;;10.43;3.78;;;;;;;30.63;33.29;98657.13;4385417;32;20715;-81
2023/07/08 04:40:51;;;;;;;9.52;3.83;;;;;;;31.12;32.50;98651.37;4399041;32;20066;-81
2023/07/08 04:43:19;;;;;;;7.70;3.33;;;;;;;31.23;32.49;98650.97;4399473;32;20098;-81
2023/07/08 04:45:51;;;;;;;7.25;3.37;;;;;;;31.25;32.66;98646.25;4399519;32;20093;-81
2023/07/08 04:48:21;;;;;;;8.45;3.50;;;;;;;31.79;32.11;98658.50;4386295;32;20073;-82
2023/07/08 04:50:59;;;;;;;8.70;3.47;;;;;;;32.51;31.23;98653.19;4400654;32;20498;-82
2023/07/08 04:53:27;;;;;;;8.80;3.65;;;;;;;33.44;30.28;98659.34;4401756;32;20098;-82
2023/07/08 04:55:55;;;;;;;9.23;3.65;;;;;;;33.36;30.22;98655.78;4401809;32;20086;-82
2023/07/08 04:58:22;;;;;;;10.27;3.78;;;;;;;34.04;29.14;98666.66;4402268;32;20074;-82
2023/07/08 05:00:50;;;;;;;8.40;3.70;;;;;;;34.88;28.04;98670.75;4401863;32;20106;-82
2023/07/08 05:03:17;;;;;;;9.00;4.00;;;;;;;35.67;26.92;98670.69;4400834;32;20102;-82
2023/07/08 05:05:44;;;;;;;8.27;3.40;;;;;;;36.27;26.07;98665.91;4399065;32;20101;-82
2023/07/08 05:08:12;;;;;;;8.30;3.55;;;;;;;36.85;25.30;98663.06;4397047;32;20113;-82
2023/07/08 05:10:39;;;;;;;9.10;3.53;;;;;;;37.09;24.94;98664.09;4382940;32;20121;-82
2023/07/08 05:13:06;;;;;;;10.25;3.72;;;;;;;37.45;25.03;98674.16;4403775;32;20062;-83
2023/07/08 05:15:33;;;;;;;9.52;3.60;;;;;;;37.88;24.12;98675.97;4405472;32;20105;-83
2023/07/08 05:18:00;;;;;;;10.40;3.80;;;;;;;37.85;23.92;98663.75;4405696;32;20141;-82
2023/07/08 05:20:35;;;;;;;11.18;3.78;;;;;;;38.24;23.89;98664.31;4406296;32;20059;-82
2023/07/08 05:23:02;;;;;;;8.43;3.50;;;;;;;38.03;24.19;98665.59;4405822;32;20090;-82
2023/07/08 05:25:32;;;;;;;8.52;3.67;;;;;;;38.44;23.87;98667.53;4405673;32;20100;-83
2023/07/08 05:27:59;;;;;;;9.57;3.47;;;;;;;38.75;23.45;98668.34;4405489;32;20101;-83
2023/07/08 05:30:28;;;;;;;8.85;3.60;;;;;;;38.57;23.25;98665.69;4405134;32;20116;-83
2023/07/08 05:32:55;;;;;;;9.40;3.80;;;;;;;38.90;22.68;98681.38;4405895;32;20105;-82
2023/07/08 05:35:24;;;;;;;7.35;3.67;;;;;;;39.30;22.40;98681.56;4406185;32;20074;-82
2023/07/08 05:37:51;;;;;;;8.23;3.60;;;;;;;39.17;22.89;98685.31;4407814;32;20078;-82
2023/07/08 05:40:20;;;;;;;7.37;3.40;;;;;;;39.41;22.82;98678.03;4407457;32;20164;-82
2023/07/08 05:42:47;;;;;;;7.07;3.33;;;;;;;39.82;22.76;98678.94;4407950;32;20065;-82
2023/07/08 05:45:14;;;;;;;7.18;3.10;;;;;;;39.89;22.38;98688.53;4407869;32;20054;-82
2023/07/08 05:47:41;;;;;;;8.20;3.15;;;;;;;39.80;22.39;98681.87;4406939;32;20063;-82
2023/07/08 05:50:08;;;;;;;7.72;3.08;;;;;;;39.91;21.74;98691.00;4407473;32;20727;-82
2023/07/08 05:52:34;;;;;;;7.25;3.15;;;;;;;39.84;21.75;98680.31;4407749;32;20090;-82
2023/07/08 05:55:01;;;;;;;7.25;3.15;;;;;;;39.31;21.82;98675.09;4408431;32;20062;-82
2023/07/08 05:57:28;;;;;;;11.82;3.42;;;;;;;38.61;22.54;98683.06;4408589;32;20111;-82
2023/07/08 05:59:55;;;;;;;8.95;3.45;;;;;;;38.32;22.43;98673.97;4408085;32;20113;-82
2023/07/08 06:02:25;;;;;;;7.82;3.20;;;;;;;37.24;22.44;98674.53;4407096;32;20142;-82
2023/07/08 06:04:52;;;;;;;8.82;3.22;;;;;;;37.77;22.77;98674.03;4407376;32;20051;-82
2023/07/08 06:07:19;;;;;;;8.00;3.10;;;;;;;37.33;22.68;98673.25;4407407;32;20082;-82
2023/07/08 06:09:47;;;;;;;9.18;3.05;;;;;;;37.10;23.09;98671.12;4407793;32;20075;-82
2023/07/08 06:12:14;;;;;;;7.28;2.90;;;;;;;36.71;23.67;98677.66;4406619;32;20066;-82
2023/07/08 06:14:41;;;;;;;7.70;3.10;;;;;;;33.49;27.12;98667.59;4407331;32;20062;-82
2023/07/08 06:17:08;;;;;;;9.00;3.50;;;;;;;32.55;27.58;98661.69;4407454;32;20676;-82
2023/07/08 06:19:36;;;;;;;9.65;3.50;;;;;;;32.27;27.88;98666.91;4406065;32;20094;-81
2023/07/08 06:22:03;;;;;;;7.18;3.00;;;;;;;32.17;28.42;98659.19;4405202;32;20116;-81
2023/07/08 06:24:49;;;;;;;7.30;2.97;;;;;;;32.15;29.09;98661.22;4404919;32;20066;-81
2023/07/08 06:27:16;;;;;;;8.82;3.37;;;;;;;32.15;28.49;98655.88;4405794;32;20067;-81
2023/07/08 06:29:45;;;;;;;8.90;3.05;;;;;;;32.20;28.84;98656.97;4404668;32;20831;-81
2023/07/08 06:32:12;;;;;;;7.20;3.00;;;;;;;31.90;30.26;98655.38;4404899;32;20158;-82
2023/07/08 06:34:39;;;;;;;7.97;3.15;;;;;;;31.54;30.57;98665.97;4406194;32;20086;-81
2023/07/08 06:37:06;;;;;;;8.20;3.03;;;;;;;31.98;30.28;98654.44;4404792;32;20082;-82
2023/07/08 06:39:33;;;;;;;9.65;3.20;;;;;;;32.27;30.30;98656.22;4403325;32;20146;-82
2023/07/08 06:42:00;;;;;;;9.70;3.20;;;;;;;32.00;30.12;98658.56;4405221;32;20101;-82
2023/07/08 06:44:27;;;;;;;9.93;3.42;;;;;;;31.27;31.35;98649.59;4405753;32;20066;-81
2023/07/08 06:46:54;;;;;;;6.55;3.10;;;;;;;31.97;30.18;98660.81;4404063;32;20113;-82
2023/07/08 06:49:34;;;;;;;8.07;3.47;;;;;;;31.09;30.30;98660.56;4404652;32;20106;-82
2023/07/08 06:52:01;;;;;;;7.18;3.12;;;;;;;30.76;31.44;98659.22;4402912;32;20062;-82
2023/07/08 06:54:27;;;;;;;7.32;3.22;;;;;;;30.91;32.24;98659.25;4404622;32;20055;-81
2023/07/08 06:56:54;;;;;;;10.68;3.35;;;;;;;29.25;35.00;98666.53;4402938;32;20117;-82
2023/07/08 06:59:21;;;;;;;8.23;3.30;;;;;;;29.28;35.18;98668.03;4402077;32;20063;-82
2023/07/08 07:01:48;;;;;;;7.45;2.97;;;;;;;30.51;32.36;98671.84;4401796;32;20128;-82
2023/07/08 07:04:15;;;;;;;6.03;3.08;;;;;;;30.61;33.30;98675.09;4402003;32;20117;-81
2023/07/08 07:06:42;;;;;;;8.13;3.33;;;;;;;30.20;32.23;98672.72;4400628;32;20091;-81
2023/07/08 07:09:09;;;;;;;7.22;3.17;;;;;;;30.59;31.65;98673.63;4401518;32;20102;-82
2023/07/08 07:11:36;;;;;;;8.10;3.03;;;;;;;29.94;32.80;98675.63;4400266;32;20109;-82
2023/07/08 07:14:03;;;;;;;8.63;3.20;;;;;;;30.88;32.79;98679.09;4400196;32;20082;-82
2023/07/08 07:16:50;;;;;;;7.25;3.00;;;;;;;30.21;32.06;98673.56;4398637;32;20083;-82
2023/07/08 07:19:36;;;;;;;6.37;2.90;;;;;;;30.84;32.37;98675.13;4399448;32;20117;-82
2023/07/08 07:22:03;;;;;;;7.00;3.20;;;;;;;30.95;32.62;98672.03;4397450;32;20090;-82
2023/07/08 07:24:30;;;;;;;7.75;3.15;;;;;;;29.35;34.08;98663.69;4382788;32;20102;-82
2023/07/08 07:26:58;;;;;;;8.02;3.28;;;;;;;30.31;32.49;98663.50;4395761;32;20156;-81
2023/07/08 07:29:25;;;;;;;8.85;3.25;;;;;;;30.98;30.93;98658.34;4399053;32;20117;-80
2023/07/08 07:31:52;;;;;;;8.50;3.80;;;;;;;31.43;30.59;98659.25;4402855;32;20093;-81
2023/07/08 07:34:19;;;;;;;8.02;2.92;;;;;;;31.32;30.11;98660.53;4403772;32;20145;-81
2023/07/08 07:36:46;;;;;;;8.82;3.03;;;;;;;31.28;30.09;98658.44;4405510;32;20112;-81
2023/07/08 07:39:13;;;;;;;8.13;3.10;;;;;;;31.83;31.09;98662.50;4407236;32;20081;-82
2023/07/08 07:41:40;;;;;;;6.12;2.70;;;;;;;31.25;31.15;98662.25;4407242;32;20070;-82
2023/07/08 07:44:07;;;;;;;7.15;3.10;;;;;;;32.26;29.61;98668.75;4404605;32;20063;-82
2023/07/08 07:46:34;;;;;;;9.32;3.50;;;;;;;31.07;30.39;98672.44;4406394;32;20086;-81
2023/07/08 07:49:01;;;;;;;6.90;2.78;;;;;;;31.87;29.40;98653.91;4405103;32;20109;-81
2023/07/08 07:51:28;;;;;;;9.32;3.35;;;;;;;31.37;31.47;98660.81;4406305;32;20107;-81
2023/07/08 07:53:55;;;;;;;5.80;2.87;;;;;;;32.15;30.87;98674.56;4405790;32;20094;-82
2023/07/08 07:56:21;;;;;;;12.02;3.78;;;;;;;31.69;30.07;98669.47;4405855;32;20105;-82
2023/07/08 07:58:51;;;;;;;7.20;2.80;;;;;;;32.22;29.04;98664.78;4405401;32;20352;-81
2023/07/08 08:01:19;;;;;;;7.93;3.25;;;;;;;32.13;29.71;98669.44;4405183;32;20070;-82
2023/07/08 08:03:50;;;;;;;9.05;3.15;;;;;;;32.24;30.44;98666.25;4402375;32;20082;-81
2023/07/08 08:06:17;;;;;;;9.27;3.62;;;;;;;32.54;29.38;98674.22;4406548;32;20467;-81
2023/07/08 08:08:45;;;;;;;8.93;3.53;;;;;;;31.58;30.24;98667.25;4407260;32;20160;-81
2023/07/08 08:11:12;;;;;;;9.25;3.12;;;;;;;31.67;29.55;98666.13;4401264;32;20118;-81
2023/07/08 08:13:39;;;;;;;8.00;3.40;;;;;;;31.33;30.65;98664.84;4401595;32;20149;-81
2023/07/08 08:16:06;;;;;;;9.20;3.22;;;;;;;31.36;29.62;98667.13;4404680;32;20062;-81
2023/07/08 08:18:33;;;;;;;8.48;3.30;;;;;;;31.55;29.95;98670.28;4407139;32;20116;-82
2023/07/08 08:21:00;;;;;;;9.25;3.17;;;;;;;31.33;31.26;98664.03;4406351;32;20099;-81
2023/07/08 08:23:27;;;;;;;8.80;3.10;;;;;;;32.46;30.01;98663.62;4405733;32;20062;-81
2023/07/08 08:25:54;;;;;;;10.32;3.72;;;;;;;32.39;28.38;98662.75;4405815;32;20092;-82
2023/07/08 08:28:21;;;;;;;9.57;3.37;;;;;;;32.82;28.52;98663.56;4393640;32;20070;-82
2023/07/08 08:30:49;;;;;;;12.18;3.50;;;;;;;31.76;29.81;98665.06;4406672;32;20119;-82
2023/07/08 08:33:17;;;;;;;8.25;3.50;;;;;;;32.08;29.29;98665.66;4407105;32;20064;-82
2023/07/08 08:35:45;;;;;;;8.15;3.45;;;;;;;32.88;28.91;98667.34;4403836;32;20109;-82
2023/07/08 08:38:12;;;;;;;8.25;3.35;;;;;;;32.50;28.03;98671.06;4402422;32;20124;-82
2023/07/08 08:40:41;;;;;;;10.02;3.58;;;;;;;32.56;27.37;98666.81;4404619;32;20071;-82
2023/07/08 08:43:14;;;;;;;8.57;3.67;;;;;;;32.40;29.20;98673.22;4405611;32;20062;-82
2023/07/08 08:45:58;;;;;;;9.32;3.30;;;;;;;33.14;27.92;98672.88;4390139;32;20642;-82
2023/07/08 08:48:26;;;;;;;8.35;3.30;;;;;;;31.90;30.42;98669.56;4404435;32;20078;-81
2023/07/08 08:51:00;;;;;;;7.03;2.92;;;;;;;33.44;28.69;98657.47;4390110;32;20075;-82
2023/07/08 08:53:27;;;;;;;8.40;3.53;;;;;;;32.64;28.80;98660.50;4393637;32;20181;-81
2023/07/08 08:56:05;;;;;;;8.48;3.60;;;;;;;32.99;29.09;98658.81;4392380;32;20097;-82
2023/07/08 08:59:12;;;;;;;8.40;3.50;;;;;;;32.96;29.10;98664.50;4403230;32;20071;-81
2023/07/08 09:01:39;;;;;;;8.68;3.10;;;;;;;32.31;29.01;98660.19;4406134;32;20075;-81
2023/07/08 09:04:13;;;;;;;7.62;3.30;;;;;;;33.37;27.28;98654.75;4402787;32;20737;-81
2023/07/08 09:06:40;;;;;;;10.82;3.50;;;;;;;34.12;28.42;98671.00;4389073;32;20100;-82
2023/07/08 09:09:21;;;;;;;7.82;3.62;;;;;;;32.80;29.54;98663.75;4400883;32;20095;-81
2023/07/08 09:11:55;;;;;;;11.32;3.47;;;;;;;33.11;28.04;98656.41;4387083;32;20090;-82
2023/07/08 09:14:28;;;;;;;8.10;3.08;;;;;;;33.22;28.68;98651.34;4399755;32;20154;-81
2023/07/08 09:17:16;;;;;;;10.13;3.22;;;;;;;33.70;27.37;98655.97;4400072;32;20078;-81
2023/07/08 09:20:12;;;;;;;9.07;3.28;;;;;;;34.69;26.08;98657.13;4402018;32;20453;-82
2023/07/08 09:22:46;;;;;;;8.93;3.30;;;;;;;33.95;27.09;98651.78;4396396;32;20095;-81
2023/07/08 09:25:22;;;;;;;7.35;3.25;;;;;;;33.65;27.25;98645.88;4386521;32;20071;-81
2023/07/08 09:27:49;;;;;;;8.50;3.47;;;;;;;33.65;28.32;98641.34;4398175;32;20120;-81
2023/07/08 09:30:18;;;;;;;10.15;3.50;;;;;;;33.72;27.81;98646.72;4397526;32;20537;-81
2023/07/08 09:32:46;;;;;;;9.40;3.55;;;;;;;33.75;27.96;98640.16;4397955;32;20121;-81
2023/07/08 09:35:22;;;;;;;8.07;3.25;;;;;;;33.25;29.58;98637.59;4396396;32;20166;-82
2023/07/08 09:37:50;;;;;;;8.90;3.72;;;;;;;34.50;26.57;98631.16;4397298;32;20149;-82
2023/07/08 09:40:19;;;;;;;8.82;3.42;;;;;;;33.75;27.97;98643.66;4397450;32;20148;-81
2023/07/08 09:42:50;;;;;;;8.13;3.30;;;;;;;34.16;27.01;98638.25;4395844;32;20433;-81
2023/07/08 09:45:22;;;;;;;9.27;3.28;;;;;;;34.61;26.41;98635.88;4396444;32;20090;-81
2023/07/08 09:47:53;;;;;;;11.90;3.90;;;;;;;35.42;26.65;98634.84;4401467;32;20073;-81
2023/07/08 09:50:23;;;;;;;13.40;4.00;;;;;;;35.76;25.55;98639.88;4406850;32;20077;-81
2023/07/08 09:52:54;;;;;;;11.20;3.47;;;;;;;34.53;27.11;98638.75;4403576;32;20115;-82
2023/07/08 09:55:24;;;;;;;7.78;3.37;;;;;;;35.07;26.50;98637.75;4400693;32;20101;-82
2023/07/08 09:57:53;;;;;;;9.98;3.50;;;;;;;34.42;26.93;98632.16;4402426;32;20154;-81
2023/07/08 10:00:28;;;;;;;9.80;3.50;;;;;;;33.50;27.33;98635.31;4406429;32;20063;-81
2023/07/08 10:02:57;;;;;;;7.90;3.73;;;;;;;33.89;28.37;98632.00;4390819;32;20164;-82
2023/07/08 10:05:36;;;;;;;11.30;4.07;;;;;;;33.90;29.10;98630.97;4403180;32;20078;-82
2023/07/08 10:08:14;;;;;;;8.25;3.33;;;;;;;34.25;27.25;98628.19;4405726;32;20144;-82
2023/07/08 10:10:42;;;;;;;8.20;3.42;;;;;;;35.06;26.99;98618.16;4401178;32;20059;-82
2023/07/08 10:13:34;;;;;;;7.65;3.28;;;;;;;34.93;26.44;98617.38;4401745;32;20058;-82
2023/07/08 10:16:14;;;;;;;8.23;3.37;;;;;;;35.28;26.31;98615.22;4402595;32;20082;-82
2023/07/08 10:18:41;;;;;;;9.90;3.75;;;;;;;35.44;25.60;98622.03;4401166;32;20076;-82
2023/07/08 10:21:14;;;;;;;7.82;3.00;;;;;;;36.86;23.64;98631.63;4391464;32;20079;-81
2023/07/08 10:23:54;;;;;;;7.10;3.30;;;;;;;34.66;25.54;98625.38;4405481;32;20062;-81
2023/07/08 10:26:29;;;;;;;6.85;3.35;;;;;;;35.04;25.75;98630.13;4394158;32;20108;-82
2023/07/08 10:29:14;;;;;;;8.53;3.70;;;;;;;35.48;25.41;98623.25;4390769;32;20138;-82
2023/07/08 10:32:18;;;;;;;8.80;3.20;;;;;;;35.35;26.10;98627.59;4403352;32;20107;-82
2023/07/08 10:35:15;;;;;;;8.75;3.40;;;;;;;36.18;23.97;98624.22;4402094;32;20146;-82
2023/07/08 10:37:59;;;;;;;8.50;3.37;;;;;;;36.28;24.71;98618.38;4391988;32;20108;-81
2023/07/08 10:41:06;;;;;;;6.35;3.20;;;;;;;35.34;25.75;98625.97;4401219;32;20093;-81
2023/07/08 10:43:51;;;;;;;8.73;3.33;;;;;;;34.38;25.46;98625.56;4403710;32;20111;-81
2023/07/08 10:46:34;;;;;;;8.23;3.20;;;;;;;33.92;26.00;98620.06;4402298;32;20102;-81
2023/07/08 10:49:07;;;;;;;10.70;3.78;;;;;;;35.00;26.27;98616.34;4401258;32;20094;-81
2023/07/08 10:51:34;;;;;;;8.50;3.35;;;;;;;34.32;28.15;98620.97;4400949;32;20087;-81
2023/07/08 10:54:32;;;;;;;6.62;3.22;;;;;;;34.47;27.35;98610.12;4401877;32;20058;-81
2023/07/08 10:57:27;;;;;;;8.65;3.47;;;;;;;34.98;25.32;98607.66;4402007;32;20102;-81
2023/07/08 11:00:00;;;;;;;8.70;3.33;;;;;;;34.71;26.24;98606.81;4400518;32;20505;-81
2023/07/08 11:02:52;;;;;;;6.55;2.92;;;;;;;34.44;26.54;98603.31;4402659;32;20162;-81
2023/07/08 11:05:42;;;;;;;8.02;3.20;;;;;;;33.76;27.35;98602.47;4403980;32;20440;-81
2023/07/08 11:08:20;;;;;;;10.00;3.45;;;;;;;34.36;24.98;98602.66;4389477;32;20110;-81
2023/07/08 11:11:00;;;;;;;8.75;3.05;;;;;;;35.63;24.54;98599.69;4390176;32;20090;-81
2023/07/08 11:13:47;;;;;;;8.05;3.50;;;;;;;36.04;23.66;98595.78;4389829;32;20083;-81
2023/07/08 11:16:24;;;;;;;6.90;3.12;;;;;;;34.20;25.92;98596.66;4401910;32;20133;-81
2023/07/08 11:19:09;;;;;;;7.07;3.25;;;;;;;34.56;25.48;98592.81;4388064;32;20490;-81
2023/07/08 11:21:58;;;;;;;6.72;2.92;;;;;;;34.56;25.35;98587.47;4399846;32;20114;-81
2023/07/08 11:24:46;;;;;;;6.90;3.08;;;;;;;34.14;25.39;98593.97;4386763;32;20086;-81
2023/07/08 11:27:24;;;;;;;9.68;3.30;;;;;;;34.66;24.61;98587.84;4400830;32;20063;-81
2023/07/08 11:29:58;;;;;;;7.78;3.20;;;;;;;34.82;24.62;98583.94;4386818;32;20165;-81
2023/07/08 11:32:28;;;;;;;7.05;3.00;;;;;;;35.17;22.73;98573.78;4400291;32;20082;-81
2023/07/08 11:34:56;;;;;;;6.97;3.10;;;;;;;35.43;24.06;98577.47;4386505;32;20112;-81
2023/07/08 11:37:23;;;;;;;7.43;3.00;;;;;;;35.32;24.44;98577.06;4385233;32;20138;-81
2023/07/08 11:39:58;;;;;;;6.78;3.00;;;;;;;34.82;24.20;98575.06;4399008;32;20098;-81
2023/07/08 11:42:45;;;;;;;12.30;3.53;;;;;;;34.73;24.28;98571.78;4398290;32;20146;-81
2023/07/08 11:45:32;;;;;;;8.15;3.28;;;;;;;34.09;24.16;98570.47;4398472;32;20125;-81
2023/07/08 11:48:28;;;;;;;5.53;2.58;;;;;;;34.39;23.50;98562.94;4397829;32;20102;-81
2023/07/08 11:50:55;;;;;;;5.62;2.60;;;;;;;35.16;21.36;98571.31;4396934;32;20436;-81